Overview Statistics Trail Chart Weather Telemetry Raw packets
 

This is the latest recevied weather packets stored in our database for station/object IW9CSJ-13. If no packets are shown the sender has not sent any weather packets the latest 10 day(s).

<< 2 3 4 5 6 7 8 >>
Time Temp. Humidity Pressure Rain* Wind** Luminosity Snow
1788280520 27.78° C 60% 1016.2 hPa 0 mm - - -
1788280221 27.78° C 60% 1016.2 hPa 0 mm - - -
1788279920 27.78° C 59% 1016.2 hPa 0 mm - - -
1788279621 27.78° C 59% 1016.2 hPa 0 mm - - -
1788278420 28.33° C 56% 1016.2 hPa 0 mm - - -
1788278122 28.33° C 55% 1016.2 hPa 0 mm - - -
1788276620 28.89° C 55% 1016.4 hPa 0 mm - - -
1788276025 28.89° C 55% 1016.3 hPa 0 mm - - -
1788275720 28.89° C 55% 1016.3 hPa 0 mm - - -
1788275421 28.89° C 55% 1016.3 hPa 0 mm - - -
1788274521 29.44° C 55% 1016.3 hPa 0 mm - - -
1788273020 30° C 52% 1016.2 hPa 0 mm - - -
1788272121 30.56° C 50% 1016.1 hPa 0 mm - - -
1788270921 30.56° C 48% 1016.1 hPa 0 mm - - -
1788270020 31.11° C 47% 1016.1 hPa 0 mm - - -
1788263122 30° C 53% 1016.9 hPa 0 mm - - -
1788262221 30.56° C 51% 1016.9 hPa 0 mm - - -
1788260720 32.22° C 45% 1016.7 hPa 0 mm - - -
1788259820 31.67° C 49% 1017 hPa 0 mm - - -
1788259520 31.67° C 50% 1017 hPa 0 mm - - -
1788259220 31.11° C 52% 1017 hPa 0 mm - - -
1788258921 31.67° C 51% 1017 hPa 0 mm - - -
1788258321 31.67° C 50% 1017.1 hPa 0 mm - - -
1788258021 31.67° C 50% 1017 hPa 0 mm - - -
1788257720 31.11° C 52% 1017.1 hPa 0 mm - - -

* Rain latest hour (hover to see other rain measurements)
** Current wind speed in m/s (hover to see current wind gust speed)